createdAt,value
2023-02-28T00:00:39.717Z,-0.38
2023-02-28T00:03:18.688Z,-0.41
2023-02-28T00:05:48.895Z,-0.40
2023-02-28T00:08:16.940Z,-0.39
2023-02-28T00:10:47.196Z,-0.40
2023-02-28T00:13:15.276Z,-0.41
2023-02-28T00:15:43.105Z,-0.42
2023-02-28T00:18:10.877Z,-0.41
2023-02-28T00:20:42.312Z,-0.40
2023-02-28T00:23:12.388Z,-0.39
2023-02-28T00:25:42.769Z,-0.39
2023-02-28T00:28:10.801Z,-0.39
2023-02-28T00:30:39.820Z,-0.38
2023-02-28T00:33:07.713Z,-0.39
2023-02-28T00:35:35.925Z,-0.40
2023-02-28T00:38:05.967Z,-0.41
2023-02-28T00:40:39.103Z,-0.43
2023-02-28T00:43:07.082Z,-0.43
2023-02-28T00:45:34.936Z,-0.44
2023-02-28T00:48:02.950Z,-0.47
2023-02-28T00:50:31.104Z,-0.48
2023-02-28T00:52:59.217Z,-0.49
2023-02-28T00:55:28.439Z,-0.49
2023-02-28T00:57:56.284Z,-0.49
2023-02-28T01:00:24.074Z,-0.51
2023-02-28T01:02:52.164Z,-0.53
2023-02-28T01:05:20.194Z,-0.54
2023-02-28T01:07:48.231Z,-0.56
2023-02-28T01:39:56.682Z,-0.71
2023-02-28T01:42:23.442Z,-0.76
2023-02-28T01:45:01.069Z,-0.80
2023-02-28T01:47:36.584Z,-0.84
2023-02-28T01:50:07.832Z,-0.86
2023-02-28T01:52:34.753Z,-0.89
2023-02-28T01:55:06.086Z,-0.92
2023-02-28T01:57:38.081Z,-0.96
2023-02-28T02:00:10.812Z,-0.98
2023-02-28T02:02:43.877Z,-1.00
2023-02-28T02:05:16.183Z,-1.02
2023-02-28T02:07:50.028Z,-1.05
2023-02-28T02:10:31.904Z,-1.06
2023-02-28T02:13:36.182Z,-1.09
2023-02-28T02:16:24.530Z,-1.12
2023-02-28T02:18:55.601Z,-1.15
2023-02-28T02:21:54.658Z,-1.16
2023-02-28T02:24:49.352Z,-1.17
2023-02-28T02:27:49.790Z,-1.19
2023-02-28T02:30:24.993Z,-1.21
2023-02-28T02:33:05.407Z,-1.23
2023-02-28T02:35:41.518Z,-1.25
2023-02-28T02:38:26.738Z,-1.30
2023-02-28T02:41:25.957Z,-1.34
2023-02-28T02:44:14.022Z,-1.38
2023-02-28T02:46:45.741Z,-1.43
2023-02-28T02:49:36.490Z,-1.46
2023-02-28T02:52:08.764Z,-1.48
2023-02-28T02:54:37.257Z,-1.49
2023-02-28T02:57:10.470Z,-1.53
2023-02-28T02:59:41.771Z,-1.58
2023-02-28T03:02:13.061Z,-1.60
2023-02-28T03:04:44.148Z,-1.61
2023-02-28T03:07:10.772Z,-1.62
2023-02-28T03:09:38.028Z,-1.65
2023-02-28T03:20:39.223Z,-1.71
2023-02-28T03:24:16.859Z,-1.77
2023-02-28T03:27:44.361Z,-1.76
2023-02-28T03:35:26.147Z,-1.82
2023-02-28T03:38:38.817Z,-1.84
2023-02-28T03:41:21.581Z,-1.85
2023-02-28T03:44:19.177Z,-1.88
2023-02-28T03:47:00.608Z,-1.89
2023-02-28T03:49:39.392Z,-1.89
2023-02-28T03:52:08.466Z,-1.90
2023-02-28T03:54:43.160Z,-1.91
2023-02-28T03:57:19.021Z,-1.92
2023-02-28T03:59:57.003Z,-1.95
2023-02-28T04:02:26.024Z,-2.00
2023-02-28T04:04:52.618Z,-2.03
2023-02-28T04:07:19.363Z,-2.05
2023-02-28T04:09:46.049Z,-2.07
2023-02-28T04:12:12.753Z,-2.09
2023-02-28T04:14:39.459Z,-2.11
2023-02-28T04:17:06.321Z,-2.13
2023-02-28T04:19:32.841Z,-2.13
2023-02-28T04:21:59.557Z,-2.13
2023-02-28T04:24:28.191Z,-2.12
2023-02-28T04:26:58.544Z,-2.14
2023-02-28T04:29:30.317Z,-2.14
2023-02-28T04:32:00.095Z,-2.15
2023-02-28T04:34:30.561Z,-2.15
2023-02-28T04:37:11.931Z,-2.16
2023-02-28T04:39:40.720Z,-2.15
2023-02-28T04:42:07.484Z,-2.15
2023-02-28T04:44:34.131Z,-2.16
2023-02-28T04:47:00.869Z,-2.16
2023-02-28T04:49:27.396Z,-2.18
2023-02-28T04:51:54.380Z,-2.19
2023-02-28T04:54:21.128Z,-2.21
2023-02-28T04:56:50.100Z,-2.24
2023-02-28T04:59:16.732Z,-2.23
2023-02-28T05:01:46.839Z,-2.24
2023-02-28T05:04:13.612Z,-2.24
2023-02-28T05:06:40.222Z,-2.23
2023-02-28T05:09:06.776Z,-2.25
2023-02-28T05:11:35.508Z,-2.24
2023-02-28T05:14:04.298Z,-2.25
2023-02-28T05:16:31.583Z,-2.29
2023-02-28T05:18:58.516Z,-2.33
2023-02-28T05:21:33.293Z,-2.33
2023-02-28T05:24:05.584Z,-2.32
2023-02-28T05:26:36.076Z,-2.32
2023-02-28T05:29:02.854Z,-2.33
2023-02-28T05:31:29.784Z,-2.32
2023-02-28T05:33:57.194Z,-2.32
2023-02-28T05:36:24.404Z,-2.31
2023-02-28T05:38:53.940Z,-2.31
2023-02-28T05:41:20.873Z,-2.30
2023-02-28T05:43:48.121Z,-2.29
2023-02-28T05:46:17.750Z,-2.27
2023-02-28T05:48:47.717Z,-2.27
2023-02-28T05:51:17.310Z,-2.28
2023-02-28T05:53:43.985Z,-2.28
2023-02-28T05:56:12.882Z,-2.27
2023-02-28T05:58:39.615Z,-2.26
2023-02-28T06:01:36.089Z,-2.23
2023-02-28T06:04:05.489Z,-2.20
2023-02-28T06:06:36.737Z,-2.19
2023-02-28T06:09:07.464Z,-2.19
2023-02-28T06:11:34.133Z,-2.21
2023-02-28T06:14:01.596Z,-2.23
2023-02-28T06:16:34.906Z,-2.22
2023-02-28T06:19:04.288Z,-2.22
2023-02-28T06:21:32.051Z,-2.22
2023-02-28T06:23:59.406Z,-2.22
2023-02-28T06:26:29.070Z,-2.22
2023-02-28T06:28:58.053Z,-2.22
2023-02-28T06:31:33.032Z,-2.21
2023-02-28T06:34:03.129Z,-2.18
2023-02-28T06:36:29.683Z,-2.17
2023-02-28T06:38:56.481Z,-2.15
2023-02-28T06:41:26.672Z,-2.14
2023-02-28T06:43:56.009Z,-2.12
2023-02-28T06:46:23.388Z,-2.11
2023-02-28T06:48:50.398Z,-2.11
2023-02-28T06:51:20.691Z,-2.10
2023-02-28T06:53:47.437Z,-2.10
2023-02-28T06:56:18.475Z,-2.08
2023-02-28T06:58:53.169Z,-2.08
2023-02-28T07:01:24.185Z,-2.09
2023-02-28T07:03:53.069Z,-2.05
2023-02-28T07:06:22.804Z,-2.04
2023-02-28T07:08:53.123Z,-2.02
2023-02-28T07:11:21.695Z,-1.99
2023-02-28T07:13:49.212Z,-1.97
2023-02-28T07:16:16.065Z,-1.94
2023-02-28T07:18:43.020Z,-1.90
2023-02-28T07:21:10.664Z,-1.87
2023-02-28T07:23:41.108Z,-1.84
2023-02-28T07:26:14.966Z,-1.81
2023-02-28T07:28:43.053Z,-1.77
2023-02-28T07:31:11.020Z,-1.73
2023-02-28T07:33:38.039Z,-1.67
2023-02-28T07:36:07.532Z,-1.62
2023-02-28T07:38:35.947Z,-1.56
2023-02-28T07:41:04.649Z,-1.52
2023-02-28T07:43:32.740Z,-1.48
2023-02-28T07:46:05.096Z,-1.44
2023-02-28T07:48:34.366Z,-1.38
2023-02-28T07:51:01.050Z,-1.35
2023-02-28T07:53:28.218Z,-1.32
2023-02-28T07:55:56.838Z,-1.33
2023-02-28T07:58:24.736Z,-1.28
2023-02-28T08:00:54.058Z,-1.27
2023-02-28T08:03:22.798Z,-1.22
2023-02-28T08:05:50.334Z,-1.17
2023-02-28T08:08:17.166Z,-1.11
2023-02-28T08:10:43.952Z,-1.05
2023-02-28T08:13:10.967Z,-0.99
2023-02-28T08:15:42.073Z,-0.94
2023-02-28T08:18:08.994Z,-0.88
2023-02-28T08:20:37.946Z,-0.83
2023-02-28T08:23:06.712Z,-0.77
2023-02-28T08:25:33.189Z,-0.74
2023-02-28T08:28:02.488Z,-0.66
2023-02-28T08:30:29.161Z,-0.56
2023-02-28T08:33:02.280Z,-0.43
2023-02-28T08:38:12.490Z,0.05
2023-02-28T08:40:38.860Z,0.30
2023-02-28T08:43:05.604Z,0.56
2023-02-28T08:45:32.394Z,0.83
2023-02-28T08:48:01.204Z,1.05
2023-02-28T08:50:30.144Z,1.31
2023-02-28T08:52:56.595Z,1.54
2023-02-28T08:55:23.523Z,1.80
2023-02-28T08:57:52.873Z,2.02
2023-02-28T09:00:20.239Z,2.21
2023-02-28T09:02:59.066Z,2.39
2023-02-28T09:05:26.120Z,2.60
2023-02-28T09:07:52.864Z,2.77
2023-02-28T09:10:19.588Z,2.94
2023-02-28T09:12:47.452Z,3.04
2023-02-28T09:15:14.281Z,3.13
2023-02-28T09:17:40.952Z,3.10
2023-02-28T09:20:08.435Z,3.12
2023-02-28T09:22:35.647Z,3.18
2023-02-28T09:25:02.139Z,3.28
2023-02-28T09:27:28.777Z,3.37
2023-02-28T09:29:55.279Z,3.41
2023-02-28T09:32:21.753Z,3.39
2023-02-28T09:34:51.347Z,3.37
2023-02-28T09:37:17.749Z,3.42
2023-02-28T09:39:44.856Z,3.44
2023-02-28T09:42:26.782Z,3.42
2023-02-28T09:44:53.865Z,3.43
2023-02-28T09:47:46.200Z,3.46
2023-02-28T09:50:26.428Z,3.50
2023-02-28T09:52:55.269Z,3.46
2023-02-28T09:55:46.616Z,3.47
2023-02-28T09:58:56.496Z,3.46
2023-02-28T10:01:42.376Z,3.38
2023-02-28T10:04:25.530Z,3.44
2023-02-28T10:06:53.368Z,3.47
2023-02-28T10:09:25.151Z,3.47
2023-02-28T10:11:56.111Z,3.48
2023-02-28T10:14:26.266Z,3.53
2023-02-28T10:16:56.987Z,3.57
2023-02-28T10:19:33.623Z,3.50
2023-02-28T10:22:11.548Z,3.58
2023-02-28T10:24:42.921Z,3.64
2023-02-28T10:27:24.320Z,3.68
2023-02-28T10:29:57.044Z,3.73
2023-02-28T10:32:28.646Z,3.78
2023-02-28T10:35:21.059Z,3.85
2023-02-28T10:37:59.571Z,3.93
2023-02-28T10:40:32.238Z,3.93
2023-02-28T10:43:01.766Z,3.94
2023-02-28T10:45:34.332Z,3.96
2023-02-28T10:48:06.792Z,3.96
2023-02-28T10:50:47.085Z,3.97
2023-02-28T10:53:26.109Z,4.03
2023-02-28T10:56:05.278Z,4.06
2023-02-28T10:58:52.078Z,4.09
2023-02-28T11:01:22.576Z,4.08
2023-02-28T11:03:50.194Z,4.06
2023-02-28T11:06:26.047Z,4.02
2023-02-28T11:09:14.778Z,4.04
2023-02-28T11:11:45.796Z,4.12
2023-02-28T11:14:40.740Z,4.15
2023-02-28T11:17:25.327Z,4.16
2023-02-28T11:19:55.637Z,4.09
2023-02-28T11:22:31.475Z,4.05
2023-02-28T11:25:02.091Z,4.02
2023-02-28T11:27:46.939Z,4.00
2023-02-28T11:30:34.485Z,3.98
2023-02-28T11:33:18.855Z,3.98
2023-02-28T11:35:46.613Z,4.01
2023-02-28T11:38:15.583Z,4.03
2023-02-28T11:40:59.626Z,4.06
2023-02-28T11:43:58.210Z,4.09
2023-02-28T11:46:45.735Z,4.06
2023-02-28T11:49:31.678Z,3.96
2023-02-28T11:52:21.559Z,3.95
2023-02-28T11:55:20.732Z,3.96
2023-02-28T11:57:54.665Z,4.07
2023-02-28T12:00:31.015Z,4.10
2023-02-28T12:03:18.405Z,4.10
2023-02-28T12:06:20.744Z,4.13
2023-02-28T12:09:37.521Z,4.15
2023-02-28T12:12:25.408Z,4.18
2023-02-28T12:15:01.054Z,4.30
2023-02-28T12:17:58.692Z,4.39
2023-02-28T12:20:38.499Z,4.39
2023-02-28T12:23:19.609Z,4.44
2023-02-28T12:26:00.775Z,4.46
2023-02-28T12:28:33.383Z,4.46
2023-02-28T12:31:14.471Z,4.43
2023-02-28T12:33:50.877Z,4.47
2023-02-28T12:36:26.489Z,4.46
2023-02-28T12:39:14.721Z,4.35
2023-02-28T12:41:56.949Z,4.15
2023-02-28T12:44:31.060Z,4.06
2023-02-28T12:47:05.720Z,4.02
2023-02-28T12:49:37.690Z,3.92
2023-02-28T12:52:04.637Z,3.80
2023-02-28T12:54:58.702Z,3.78
2023-02-28T12:57:37.572Z,3.72
2023-02-28T13:00:19.556Z,3.71
2023-02-28T13:03:30.625Z,3.65
2023-02-28T13:06:18.850Z,3.54
2023-02-28T13:26:21.777Z,3.08
2023-02-28T13:28:49.520Z,3.06
2023-02-28T13:31:19.598Z,3.00
2023-02-28T13:33:50.608Z,2.99
2023-02-28T13:36:18.546Z,3.00
2023-02-28T13:38:54.524Z,3.02
2023-02-28T13:41:34.718Z,3.05
2023-02-28T13:44:09.223Z,2.99
2023-02-28T13:46:49.975Z,2.96
2023-02-28T13:49:24.229Z,2.97
2023-02-28T13:52:07.684Z,2.95
2023-02-28T13:55:00.037Z,2.93
2023-02-28T13:57:59.054Z,2.98
2023-02-28T14:00:42.471Z,3.04
2023-02-28T14:03:30.287Z,3.07
2023-02-28T14:06:27.487Z,3.12
2023-02-28T14:09:36.669Z,3.14
2023-02-28T14:12:48.141Z,3.16
2023-02-28T14:15:55.953Z,3.16
2023-02-28T14:18:36.560Z,3.17
2023-02-28T14:21:35.308Z,3.16
2023-02-28T14:24:11.131Z,3.19
2023-02-28T14:27:08.889Z,3.22
2023-02-28T14:29:54.503Z,3.23
2023-02-28T14:32:31.465Z,3.23
2023-02-28T14:35:26.559Z,3.23
2023-02-28T14:37:56.086Z,3.21
2023-02-28T14:40:34.745Z,3.14
2023-02-28T14:43:05.524Z,3.14
2023-02-28T14:45:38.394Z,3.12
2023-02-28T14:54:55.819Z,3.10
2023-02-28T14:55:13.866Z,3.14
2023-02-28T14:57:53.232Z,3.16
2023-02-28T15:00:49.453Z,3.17
2023-02-28T15:03:33.691Z,3.16
2023-02-28T15:09:14.316Z,3.17
2023-02-28T15:11:46.409Z,3.17
2023-02-28T15:14:21.588Z,3.19
2023-02-28T15:17:00.459Z,3.17
2023-02-28T15:19:36.538Z,3.16
2023-02-28T15:22:17.866Z,3.15
2023-02-28T15:24:48.888Z,3.13
2023-02-28T15:27:24.964Z,3.15
2023-02-28T15:30:02.029Z,3.16
2023-02-28T15:32:36.095Z,3.15
2023-02-28T15:35:29.495Z,3.15
2023-02-28T15:38:01.865Z,3.16
2023-02-28T15:40:31.623Z,3.16
2023-02-28T15:43:06.111Z,3.14
2023-02-28T15:45:42.393Z,3.11
2023-02-28T15:48:19.608Z,3.14
2023-02-28T15:51:22.024Z,3.12
2023-02-28T15:53:57.162Z,3.09
2023-02-28T15:56:30.993Z,3.05
2023-02-28T15:59:04.899Z,3.03
2023-02-28T16:01:38.965Z,3.01
2023-02-28T16:04:21.034Z,3.01
2023-02-28T16:07:04.192Z,3.02
2023-02-28T16:09:35.148Z,2.99
2023-02-28T16:12:14.424Z,2.96
2023-02-28T16:14:43.661Z,2.96
2023-02-28T16:17:23.564Z,2.92
2023-02-28T16:19:51.659Z,2.87
2023-02-28T16:22:22.319Z,2.81
2023-02-28T16:24:50.640Z,2.77
2023-02-28T16:27:37.017Z,2.72
2023-02-28T16:30:06.933Z,2.68
2023-02-28T16:32:37.777Z,2.62
2023-02-28T16:35:10.739Z,2.59
2023-02-28T16:37:41.108Z,2.59
2023-02-28T16:40:15.967Z,2.55
2023-02-28T16:42:46.419Z,2.50
2023-02-28T16:45:24.068Z,2.45
2023-02-28T16:47:55.749Z,2.40
2023-02-28T16:50:28.698Z,2.33
2023-02-28T16:52:57.367Z,2.27
2023-02-28T16:55:27.298Z,2.22
2023-02-28T16:58:02.658Z,2.19
2023-02-28T17:00:32.631Z,2.15
2023-02-28T17:03:06.413Z,2.13
2023-02-28T17:05:39.382Z,2.12
2023-02-28T17:08:15.035Z,2.11
2023-02-28T17:10:45.671Z,2.10
2023-02-28T17:13:15.877Z,2.10
2023-02-28T17:15:47.387Z,2.10
2023-02-28T17:18:19.860Z,2.09
2023-02-28T17:20:48.949Z,2.08
2023-02-28T17:23:23.305Z,2.08
2023-02-28T17:25:58.226Z,2.06
2023-02-28T17:28:26.838Z,2.04
2023-02-28T17:30:57.021Z,2.01
2023-02-28T17:33:25.364Z,1.98
2023-02-28T17:35:53.453Z,1.97
2023-02-28T17:38:23.879Z,1.96
2023-02-28T17:40:58.077Z,1.94
2023-02-28T17:43:27.971Z,1.92
2023-02-28T17:45:57.378Z,1.89
2023-02-28T17:48:26.128Z,1.86
2023-02-28T17:50:55.112Z,1.82
2023-02-28T17:53:24.200Z,1.80
2023-02-28T17:55:52.211Z,1.78
2023-02-28T17:58:20.747Z,1.76
2023-02-28T18:00:54.811Z,1.72
2023-02-28T18:03:26.956Z,1.69
2023-02-28T18:05:55.083Z,1.65
2023-02-28T18:08:23.146Z,1.62
2023-02-28T18:10:51.473Z,1.58
2023-02-28T18:13:28.788Z,1.55
2023-02-28T18:15:57.003Z,1.54
2023-02-28T18:18:25.330Z,1.51
2023-02-28T18:20:56.988Z,1.48
2023-02-28T18:23:25.617Z,1.44
2023-02-28T18:25:54.082Z,1.42
2023-02-28T18:28:22.454Z,1.40
2023-02-28T18:30:50.479Z,1.38
2023-02-28T18:33:18.843Z,1.36
2023-02-28T18:36:06.610Z,1.35
2023-02-28T18:38:50.432Z,1.33
2023-02-28T18:41:23.543Z,1.30
2023-02-28T18:43:56.499Z,1.27
2023-02-28T18:46:34.662Z,1.21
2023-02-28T18:49:03.000Z,1.19
2023-02-28T18:51:33.332Z,1.15
2023-02-28T18:54:01.377Z,1.12
2023-02-28T18:56:30.557Z,1.09
2023-02-28T18:59:01.232Z,1.06
2023-02-28T19:01:32.141Z,1.04
2023-02-28T19:04:01.591Z,1.04
2023-02-28T19:06:31.066Z,1.04
2023-02-28T19:09:01.565Z,1.04
2023-02-28T19:11:30.138Z,1.02
2023-02-28T19:13:58.896Z,1.02
2023-02-28T19:16:28.390Z,1.00
2023-02-28T19:18:57.730Z,0.98
2023-02-28T19:21:26.357Z,0.98
2023-02-28T19:23:57.631Z,0.97
2023-02-28T19:26:28.782Z,0.96
2023-02-28T19:29:01.932Z,0.93
2023-02-28T19:31:30.567Z,0.90
2023-02-28T19:33:59.190Z,0.89
2023-02-28T19:36:29.248Z,0.89
2023-02-28T19:39:06.916Z,0.89
2023-02-28T19:41:37.863Z,1.12
2023-02-28T19:44:06.941Z,1.05
2023-02-28T19:46:37.491Z,1.00
2023-02-28T19:49:05.519Z,0.91
2023-02-28T19:51:34.426Z,0.84
2023-02-28T19:54:04.035Z,0.80
2023-02-28T19:56:32.758Z,0.75
2023-02-28T19:59:01.301Z,0.71
2023-02-28T20:01:29.517Z,0.69
2023-02-28T20:03:58.382Z,0.69
2023-02-28T20:06:26.698Z,0.70
2023-02-28T20:08:55.072Z,0.70
2023-02-28T20:11:23.226Z,0.67
2023-02-28T20:13:54.802Z,0.61
2023-02-28T20:16:23.651Z,0.57
2023-02-28T20:18:52.013Z,0.52
2023-02-28T20:21:20.297Z,0.46
2023-02-28T20:23:51.238Z,0.42
2023-02-28T20:26:20.296Z,0.37
2023-02-28T20:28:48.683Z,0.30
2023-02-28T20:31:20.694Z,0.28
2023-02-28T20:33:50.429Z,0.24
2023-02-28T20:36:25.496Z,0.24
2023-02-28T20:38:54.852Z,0.22
2023-02-28T20:41:25.221Z,0.23
2023-02-28T20:43:54.873Z,0.21
2023-02-28T20:46:25.880Z,0.20
2023-02-28T20:48:54.031Z,0.18
2023-02-28T20:51:24.527Z,0.14
2023-02-28T20:53:58.362Z,0.12
2023-02-28T20:56:29.536Z,0.07
2023-02-28T20:59:00.402Z,0.00
2023-02-28T21:01:30.702Z,-0.02
2023-02-28T21:04:03.152Z,-0.01
2023-02-28T21:06:37.581Z,-0.05
2023-02-28T21:09:08.147Z,-0.10
2023-02-28T21:11:38.690Z,-0.14
2023-02-28T21:14:11.407Z,-0.19
2023-02-28T21:16:44.903Z,-0.20
2023-02-28T21:19:18.118Z,-0.20
2023-02-28T21:21:47.869Z,-0.21
2023-02-28T21:24:18.446Z,-0.24
2023-02-28T21:26:47.393Z,-0.27
2023-02-28T21:29:15.936Z,-0.28
2023-02-28T21:31:44.294Z,-0.27
2023-02-28T21:34:13.278Z,-0.26
2023-02-28T21:36:45.712Z,-0.25
2023-02-28T21:39:23.386Z,-0.27
2023-02-28T21:41:52.706Z,-0.28
2023-02-28T21:44:22.734Z,-0.28
2023-02-28T21:46:56.915Z,-0.25
2023-02-28T21:49:25.421Z,-0.24
2023-02-28T21:51:55.862Z,-0.23
2023-02-28T21:54:24.439Z,-0.25
2023-02-28T21:56:52.990Z,-0.28
2023-02-28T21:59:21.508Z,-0.30
2023-02-28T22:01:52.454Z,-0.33
2023-02-28T22:04:23.471Z,-0.37
2023-02-28T22:06:54.623Z,-0.36
2023-02-28T22:09:27.942Z,-0.34
2023-02-28T22:11:58.907Z,-0.33
2023-02-28T22:14:27.070Z,-0.35
2023-02-28T22:16:56.894Z,-0.39
2023-02-28T22:19:26.492Z,-0.45
2023-02-28T22:21:55.723Z,-0.50
2023-02-28T22:24:24.767Z,-0.53
2023-02-28T22:26:53.499Z,-0.56
2023-02-28T22:29:21.853Z,-0.59
2023-02-28T22:31:50.276Z,-0.61
2023-02-28T22:34:18.258Z,-0.63
2023-02-28T22:36:46.444Z,-0.64
2023-02-28T22:39:16.456Z,-0.67
2023-02-28T22:41:44.588Z,-0.71
2023-02-28T22:44:12.463Z,-0.74
2023-02-28T22:46:40.361Z,-0.74
2023-02-28T22:49:08.216Z,-0.79
2023-02-28T22:51:36.349Z,-0.84
2023-02-28T22:54:04.682Z,-0.87
2023-02-28T22:56:32.911Z,-0.91
2023-02-28T22:59:01.855Z,-0.92
2023-02-28T23:01:32.434Z,-0.92
2023-02-28T23:04:03.683Z,-0.93
2023-02-28T23:06:34.902Z,-0.93
2023-02-28T23:09:06.536Z,-0.93
2023-02-28T23:11:38.675Z,-0.92
2023-02-28T23:14:07.385Z,-0.94
2023-02-28T23:16:36.785Z,-0.94
2023-02-28T23:19:10.095Z,-0.96
2023-02-28T23:21:38.498Z,-0.98
2023-02-28T23:24:10.645Z,-0.99
2023-02-28T23:26:41.507Z,-1.02
2023-02-28T23:29:09.997Z,-1.04
2023-02-28T23:31:37.801Z,-1.07
2023-02-28T23:34:09.281Z,-1.08
2023-02-28T23:36:46.310Z,-1.11
2023-02-28T23:39:19.269Z,-1.12
2023-02-28T23:41:47.401Z,-1.14
2023-02-28T23:44:17.032Z,-1.16
2023-02-28T23:46:47.040Z,-1.17
2023-02-28T23:49:16.021Z,-1.19
2023-02-28T23:51:44.057Z,-1.22
2023-02-28T23:54:14.462Z,-1.23
2023-02-28T23:56:44.662Z,-1.23
2023-02-28T23:59:12.797Z,-1.24
